sensor_id;sensor_type;location;lat;lon;timestamp;temperature;humidity
5697;DHT22;2873;50.966;7.210;2022-11-15T00:00:43;11.00;99.90
5697;DHT22;2873;50.966;7.210;2022-11-15T00:03:08;11.10;99.90
5697;DHT22;2873;50.966;7.210;2022-11-15T00:05:35;11.10;99.90
5697;DHT22;2873;50.966;7.210;2022-11-15T00:08:01;11.10;99.90
5697;DHT22;2873;50.966;7.210;2022-11-15T00:10:26;11.20;99.90
5697;DHT22;2873;50.966;7.210;2022-11-15T00:12:52;11.30;99.90
5697;DHT22;2873;50.966;7.210;2022-11-15T00:15:17;11.40;99.90
5697;DHT22;2873;50.966;7.210;2022-11-15T00:17:43;11.40;99.90
5697;DHT22;2873;50.966;7.210;2022-11-15T00:20:09;11.40;99.90
5697;DHT22;2873;50.966;7.210;2022-11-15T00:22:35;11.50;99.90
5697;DHT22;2873;50.966;7.210;2022-11-15T00:25:00;11.50;99.90
5697;DHT22;2873;50.966;7.210;2022-11-15T00:27:26;11.60;99.90
5697;DHT22;2873;50.966;7.210;2022-11-15T00:29:52;11.70;99.90
5697;DHT22;2873;50.966;7.210;2022-11-15T00:32:18;11.70;99.90
5697;DHT22;2873;50.966;7.210;2022-11-15T00:34:44;11.70;99.90
5697;DHT22;2873;50.966;7.210;2022-11-15T00:37:09;11.80;99.90
5697;DHT22;2873;50.966;7.210;2022-11-15T00:39:35;11.80;99.90
5697;DHT22;2873;50.966;7.210;2022-11-15T00:42:00;11.80;99.90
5697;DHT22;2873;50.966;7.210;2022-11-15T00:44:26;11.80;99.90
5697;DHT22;2873;50.966;7.210;2022-11-15T00:46:52;12.00;99.90
5697;DHT22;2873;50.966;7.210;2022-11-15T00:49:17;11.90;99.90
5697;DHT22;2873;50.966;7.210;2022-11-15T00:51:43;12.00;99.90
5697;DHT22;2873;50.966;7.210;2022-11-15T00:54:08;12.00;99.90
5697;DHT22;2873;50.966;7.210;2022-11-15T00:56:34;12.00;99.90
5697;DHT22;2873;50.966;7.210;2022-11-15T00:58:59;12.00;99.90
5697;DHT22;2873;50.966;7.210;2022-11-15T01:01:25;12.10;99.90
5697;DHT22;2873;50.966;7.210;2022-11-15T01:03:50;12.00;99.90
5697;DHT22;2873;50.966;7.210;2022-11-15T01:06:16;12.00;99.90
5697;DHT22;2873;50.966;7.210;2022-11-15T01:08:41;12.00;99.90
5697;DHT22;2873;50.966;7.210;2022-11-15T01:11:10;12.10;99.90
5697;DHT22;2873;50.966;7.210;2022-11-15T01:13:37;12.20;99.90
5697;DHT22;2873;50.966;7.210;2022-11-15T01:16:11;12.20;99.90
5697;DHT22;2873;50.966;7.210;2022-11-15T01:18:37;12.20;99.90
5697;DHT22;2873;50.966;7.210;2022-11-15T01:21:16;12.30;99.90
5697;DHT22;2873;50.966;7.210;2022-11-15T01:23:42;12.30;99.90
5697;DHT22;2873;50.966;7.210;2022-11-15T01:26:11;12.30;99.90
5697;DHT22;2873;50.966;7.210;2022-11-15T01:28:38;12.30;99.90
5697;DHT22;2873;50.966;7.210;2022-11-15T01:31:09;12.30;99.90
5697;DHT22;2873;50.966;7.210;2022-11-15T01:33:36;12.40;99.90
5697;DHT22;2873;50.966;7.210;2022-11-15T01:36:07;12.40;99.90
5697;DHT22;2873;50.966;7.210;2022-11-15T01:38:33;12.40;99.90
5697;DHT22;2873;50.966;7.210;2022-11-15T01:40:59;12.40;99.90
5697;DHT22;2873;50.966;7.210;2022-11-15T01:43:26;12.40;99.90
5697;DHT22;2873;50.966;7.210;2022-11-15T01:46:00;12.40;99.90
5697;DHT22;2873;50.966;7.210;2022-11-15T01:48:31;12.30;99.90
5697;DHT22;2873;50.966;7.210;2022-11-15T01:51:02;12.40;99.90
5697;DHT22;2873;50.966;7.210;2022-11-15T01:53:31;12.40;99.90
5697;DHT22;2873;50.966;7.210;2022-11-15T01:55:59;12.40;99.90
5697;DHT22;2873;50.966;7.210;2022-11-15T01:58:27;12.60;99.90
5697;DHT22;2873;50.966;7.210;2022-11-15T02:00:52;12.50;99.90
5697;DHT22;2873;50.966;7.210;2022-11-15T02:03:19;12.60;99.90
5697;DHT22;2873;50.966;7.210;2022-11-15T02:05:47;12.60;99.90
5697;DHT22;2873;50.966;7.210;2022-11-15T02:08:12;12.60;99.90
5697;DHT22;2873;50.966;7.210;2022-11-15T02:10:48;12.60;99.90
5697;DHT22;2873;50.966;7.210;2022-11-15T02:13:17;12.60;99.90
5697;DHT22;2873;50.966;7.210;2022-11-15T02:18:58;12.70;99.90
5697;DHT22;2873;50.966;7.210;2022-11-15T02:25:01;12.70;99.90
5697;DHT22;2873;50.966;7.210;2022-11-15T02:30:42;12.70;99.90
5697;DHT22;2873;50.966;7.210;2022-11-15T02:33:35;12.70;99.90
5697;DHT22;2873;50.966;7.210;2022-11-15T02:36:14;12.70;99.90
5697;DHT22;2873;50.966;7.210;2022-11-15T02:38:50;12.70;99.90
5697;DHT22;2873;50.966;7.210;2022-11-15T02:44:08;12.60;99.90
5697;DHT22;2873;50.966;7.210;2022-11-15T02:49:47;12.60;99.90
5697;DHT22;2873;50.966;7.210;2022-11-15T02:52:17;12.40;99.90
5697;DHT22;2873;50.966;7.210;2022-11-15T02:54:56;12.50;99.90
5697;DHT22;2873;50.966;7.210;2022-11-15T02:58:09;12.50;99.90
5697;DHT22;2873;50.966;7.210;2022-11-15T03:00:38;12.40;99.90
5697;DHT22;2873;50.966;7.210;2022-11-15T03:06:39;12.30;99.90
5697;DHT22;2873;50.966;7.210;2022-11-15T03:09:11;12.50;99.90
5697;DHT22;2873;50.966;7.210;2022-11-15T03:11:45;12.50;99.90
5697;DHT22;2873;50.966;7.210;2022-11-15T03:14:45;12.50;99.90
5697;DHT22;2873;50.966;7.210;2022-11-15T03:17:22;12.60;99.90
5697;DHT22;2873;50.966;7.210;2022-11-15T03:19:57;12.50;99.90
5697;DHT22;2873;50.966;7.210;2022-11-15T03:22:26;12.50;99.90
5697;DHT22;2873;50.966;7.210;2022-11-15T03:24:57;12.50;99.90
5697;DHT22;2873;50.966;7.210;2022-11-15T03:27:27;12.60;99.90
5697;DHT22;2873;50.966;7.210;2022-11-15T03:30:00;12.80;99.90
5697;DHT22;2873;50.966;7.210;2022-11-15T03:32:31;12.70;99.90
5697;DHT22;2873;50.966;7.210;2022-11-15T03:35:02;12.70;99.90
5697;DHT22;2873;50.966;7.210;2022-11-15T03:37:58;12.60;99.90
5697;DHT22;2873;50.966;7.210;2022-11-15T03:40:39;12.60;99.90
5697;DHT22;2873;50.966;7.210;2022-11-15T03:45:45;12.80;99.90
5697;DHT22;2873;50.966;7.210;2022-11-15T03:48:20;12.80;99.90
5697;DHT22;2873;50.966;7.210;2022-11-15T03:50:47;12.80;99.90
5697;DHT22;2873;50.966;7.210;2022-11-15T03:53:13;12.90;99.90
5697;DHT22;2873;50.966;7.210;2022-11-15T03:55:39;12.80;99.90
5697;DHT22;2873;50.966;7.210;2022-11-15T03:58:05;12.90;99.90
5697;DHT22;2873;50.966;7.210;2022-11-15T04:00:31;12.80;99.90
5697;DHT22;2873;50.966;7.210;2022-11-15T04:02:56;12.90;99.90
5697;DHT22;2873;50.966;7.210;2022-11-15T04:05:22;12.90;99.90
5697;DHT22;2873;50.966;7.210;2022-11-15T04:07:47;12.80;99.90
5697;DHT22;2873;50.966;7.210;2022-11-15T04:10:13;12.90;99.90
5697;DHT22;2873;50.966;7.210;2022-11-15T04:12:44;13.00;99.90
5697;DHT22;2873;50.966;7.210;2022-11-15T04:15:20;13.10;99.90
5697;DHT22;2873;50.966;7.210;2022-11-15T04:17:54;13.20;99.90
5697;DHT22;2873;50.966;7.210;2022-11-15T04:20:21;13.10;99.90
5697;DHT22;2873;50.966;7.210;2022-11-15T04:23:17;13.10;99.90
5697;DHT22;2873;50.966;7.210;2022-11-15T04:26:12;13.10;99.90
5697;DHT22;2873;50.966;7.210;2022-11-15T04:28:39;13.20;99.90
5697;DHT22;2873;50.966;7.210;2022-11-15T04:31:25;13.20;99.90
5697;DHT22;2873;50.966;7.210;2022-11-15T04:33:51;13.20;99.90
5697;DHT22;2873;50.966;7.210;2022-11-15T04:36:16;13.20;99.90
5697;DHT22;2873;50.966;7.210;2022-11-15T04:39:00;13.10;99.90
5697;DHT22;2873;50.966;7.210;2022-11-15T04:41:26;13.00;99.90
5697;DHT22;2873;50.966;7.210;2022-11-15T04:43:51;13.00;99.90
5697;DHT22;2873;50.966;7.210;2022-11-15T04:46:17;13.10;99.90
5697;DHT22;2873;50.966;7.210;2022-11-15T04:48:43;13.00;99.90
5697;DHT22;2873;50.966;7.210;2022-11-15T04:51:08;12.90;99.90
5697;DHT22;2873;50.966;7.210;2022-11-15T04:53:34;12.90;99.90
5697;DHT22;2873;50.966;7.210;2022-11-15T04:55:59;12.90;99.90
5697;DHT22;2873;50.966;7.210;2022-11-15T04:58:25;13.00;99.90
5697;DHT22;2873;50.966;7.210;2022-11-15T05:00:50;13.00;99.90
5697;DHT22;2873;50.966;7.210;2022-11-15T05:03:16;13.00;99.90
5697;DHT22;2873;50.966;7.210;2022-11-15T05:06:00;12.90;99.90
5697;DHT22;2873;50.966;7.210;2022-11-15T05:08:26;12.90;99.90
5697;DHT22;2873;50.966;7.210;2022-11-15T05:10:51;13.00;99.90
5697;DHT22;2873;50.966;7.210;2022-11-15T05:13:17;13.10;99.90
5697;DHT22;2873;50.966;7.210;2022-11-15T05:15:43;13.00;99.90
5697;DHT22;2873;50.966;7.210;2022-11-15T05:18:08;13.10;99.90
5697;DHT22;2873;50.966;7.210;2022-11-15T05:20:34;13.00;99.90
5697;DHT22;2873;50.966;7.210;2022-11-15T05:22:59;13.10;99.90
5697;DHT22;2873;50.966;7.210;2022-11-15T05:25:25;13.00;99.90
5697;DHT22;2873;50.966;7.210;2022-11-15T05:27:51;13.00;99.90
5697;DHT22;2873;50.966;7.210;2022-11-15T05:30:17;13.10;99.90
5697;DHT22;2873;50.966;7.210;2022-11-15T05:32:43;13.10;99.90
5697;DHT22;2873;50.966;7.210;2022-11-15T05:38:03;12.80;99.90
5697;DHT22;2873;50.966;7.210;2022-11-15T05:40:30;12.70;99.90
5697;DHT22;2873;50.966;7.210;2022-11-15T05:42:57;12.80;99.90
5697;DHT22;2873;50.966;7.210;2022-11-15T05:45:23;12.80;99.90
5697;DHT22;2873;50.966;7.210;2022-11-15T05:47:49;12.90;99.90
5697;DHT22;2873;50.966;7.210;2022-11-15T05:50:16;12.80;99.90
5697;DHT22;2873;50.966;7.210;2022-11-15T05:52:43;12.80;99.90
5697;DHT22;2873;50.966;7.210;2022-11-15T05:55:10;12.90;99.90
5697;DHT22;2873;50.966;7.210;2022-11-15T05:57:36;12.80;99.90
5697;DHT22;2873;50.966;7.210;2022-11-15T06:00:03;12.90;99.90
5697;DHT22;2873;50.966;7.210;2022-11-15T06:02:28;12.90;99.90
5697;DHT22;2873;50.966;7.210;2022-11-15T06:04:54;12.90;99.90
5697;DHT22;2873;50.966;7.210;2022-11-15T06:07:19;12.90;99.90
5697;DHT22;2873;50.966;7.210;2022-11-15T06:09:45;12.80;99.90
5697;DHT22;2873;50.966;7.210;2022-11-15T06:12:10;12.70;99.90
5697;DHT22;2873;50.966;7.210;2022-11-15T06:14:36;12.60;99.90
5697;DHT22;2873;50.966;7.210;2022-11-15T06:17:01;12.50;99.90
5697;DHT22;2873;50.966;7.210;2022-11-15T06:19:28;12.60;99.90
5697;DHT22;2873;50.966;7.210;2022-11-15T06:21:58;12.60;99.90
5697;DHT22;2873;50.966;7.210;2022-11-15T06:24:24;12.60;99.90
5697;DHT22;2873;50.966;7.210;2022-11-15T06:26:49;12.60;99.90
5697;DHT22;2873;50.966;7.210;2022-11-15T06:29:15;12.60;99.90
5697;DHT22;2873;50.966;7.210;2022-11-15T06:31:40;12.60;99.90
5697;DHT22;2873;50.966;7.210;2022-11-15T06:34:06;12.60;99.90
5697;DHT22;2873;50.966;7.210;2022-11-15T06:36:34;12.60;99.90
5697;DHT22;2873;50.966;7.210;2022-11-15T06:39:00;12.60;99.90
5697;DHT22;2873;50.966;7.210;2022-11-15T06:41:25;12.60;99.90
5697;DHT22;2873;50.966;7.210;2022-11-15T06:43:51;12.60;99.90
5697;DHT22;2873;50.966;7.210;2022-11-15T06:46:16;12.50;99.90
5697;DHT22;2873;50.966;7.210;2022-11-15T06:48:42;12.50;99.90
5697;DHT22;2873;50.966;7.210;2022-11-15T06:51:15;12.40;99.90
5697;DHT22;2873;50.966;7.210;2022-11-15T06:53:41;12.50;99.90
5697;DHT22;2873;50.966;7.210;2022-11-15T06:56:07;12.60;99.90
5697;DHT22;2873;50.966;7.210;2022-11-15T06:58:33;12.50;99.90
5697;DHT22;2873;50.966;7.210;2022-11-15T07:01:02;12.40;99.90
5697;DHT22;2873;50.966;7.210;2022-11-15T07:03:28;12.30;99.90
5697;DHT22;2873;50.966;7.210;2022-11-15T07:05:54;12.30;99.90
5697;DHT22;2873;50.966;7.210;2022-11-15T07:08:22;12.30;99.90
5697;DHT22;2873;50.966;7.210;2022-11-15T07:10:47;12.40;99.90
5697;DHT22;2873;50.966;7.210;2022-11-15T07:13:13;12.30;99.90
5697;DHT22;2873;50.966;7.210;2022-11-15T07:15:39;12.20;99.90
5697;DHT22;2873;50.966;7.210;2022-11-15T07:18:04;12.30;99.90
5697;DHT22;2873;50.966;7.210;2022-11-15T07:20:30;12.40;99.90
5697;DHT22;2873;50.966;7.210;2022-11-15T07:23:02;12.30;99.90
5697;DHT22;2873;50.966;7.210;2022-11-15T07:25:29;12.40;99.90
5697;DHT22;2873;50.966;7.210;2022-11-15T07:27:58;12.30;99.90
5697;DHT22;2873;50.966;7.210;2022-11-15T07:30:24;12.30;99.90
5697;DHT22;2873;50.966;7.210;2022-11-15T07:32:58;12.30;99.90
5697;DHT22;2873;50.966;7.210;2022-11-15T07:35:25;12.40;99.90
5697;DHT22;2873;50.966;7.210;2022-11-15T07:37:58;12.40;99.90
5697;DHT22;2873;50.966;7.210;2022-11-15T07:40:26;12.40;99.90
5697;DHT22;2873;50.966;7.210;2022-11-15T07:42:51;12.40;99.90
5697;DHT22;2873;50.966;7.210;2022-11-15T07:45:22;12.30;99.90
5697;DHT22;2873;50.966;7.210;2022-11-15T07:47:49;12.30;99.90
5697;DHT22;2873;50.966;7.210;2022-11-15T07:50:15;12.40;99.90
5697;DHT22;2873;50.966;7.210;2022-11-15T07:52:41;12.40;99.90
5697;DHT22;2873;50.966;7.210;2022-11-15T07:55:07;12.40;99.90
5697;DHT22;2873;50.966;7.210;2022-11-15T07:57:32;12.60;99.90
5697;DHT22;2873;50.966;7.210;2022-11-15T07:59:58;12.80;99.90
5697;DHT22;2873;50.966;7.210;2022-11-15T08:02:23;12.60;99.90
5697;DHT22;2873;50.966;7.210;2022-11-15T08:04:49;12.70;99.90
5697;DHT22;2873;50.966;7.210;2022-11-15T08:07:15;12.90;99.90
5697;DHT22;2873;50.966;7.210;2022-11-15T08:09:40;12.90;99.90
5697;DHT22;2873;50.966;7.210;2022-11-15T08:12:06;13.10;99.90
5697;DHT22;2873;50.966;7.210;2022-11-15T08:14:32;13.30;99.90
5697;DHT22;2873;50.966;7.210;2022-11-15T08:16:57;13.20;99.90
5697;DHT22;2873;50.966;7.210;2022-11-15T08:19:23;13.30;99.90
5697;DHT22;2873;50.966;7.210;2022-11-15T08:21:49;13.20;99.90
5697;DHT22;2873;50.966;7.210;2022-11-15T08:24:14;13.10;99.90
5697;DHT22;2873;50.966;7.210;2022-11-15T08:26:40;13.20;99.90
5697;DHT22;2873;50.966;7.210;2022-11-15T08:29:06;13.30;99.90
5697;DHT22;2873;50.966;7.210;2022-11-15T08:31:34;13.40;99.90
5697;DHT22;2873;50.966;7.210;2022-11-15T08:34:00;13.40;99.90
5697;DHT22;2873;50.966;7.210;2022-11-15T08:36:26;13.50;99.90
5697;DHT22;2873;50.966;7.210;2022-11-15T08:38:51;13.50;99.90
5697;DHT22;2873;50.966;7.210;2022-11-15T08:41:29;13.60;99.90
5697;DHT22;2873;50.966;7.210;2022-11-15T08:43:55;13.70;99.90
5697;DHT22;2873;50.966;7.210;2022-11-15T08:46:21;13.90;99.90
5697;DHT22;2873;50.966;7.210;2022-11-15T08:48:47;13.90;99.90
5697;DHT22;2873;50.966;7.210;2022-11-15T08:51:12;13.90;99.90
5697;DHT22;2873;50.966;7.210;2022-11-15T08:53:38;14.00;99.90
5697;DHT22;2873;50.966;7.210;2022-11-15T08:56:07;14.10;99.90
5697;DHT22;2873;50.966;7.210;2022-11-15T08:58:33;14.20;99.90
5697;DHT22;2873;50.966;7.210;2022-11-15T09:00:58;14.40;99.90
5697;DHT22;2873;50.966;7.210;2022-11-15T09:03:24;14.50;99.90
5697;DHT22;2873;50.966;7.210;2022-11-15T09:05:57;14.50;99.90
5697;DHT22;2873;50.966;7.210;2022-11-15T09:08:24;14.80;99.90
5697;DHT22;2873;50.966;7.210;2022-11-15T09:10:50;15.00;99.90
5697;DHT22;2873;50.966;7.210;2022-11-15T09:13:15;15.00;99.90
5697;DHT22;2873;50.966;7.210;2022-11-15T09:15:41;15.10;99.90
5697;DHT22;2873;50.966;7.210;2022-11-15T09:18:07;15.60;99.90
5697;DHT22;2873;50.966;7.210;2022-11-15T09:20:33;16.10;99.90
5697;DHT22;2873;50.966;7.210;2022-11-15T09:23:02;16.20;99.90
5697;DHT22;2873;50.966;7.210;2022-11-15T09:25:28;16.40;99.90
5697;DHT22;2873;50.966;7.210;2022-11-15T09:27:54;16.60;99.90
5697;DHT22;2873;50.966;7.210;2022-11-15T09:30:20;17.00;99.90
5697;DHT22;2873;50.966;7.210;2022-11-15T09:32:46;17.40;99.90
5697;DHT22;2873;50.966;7.210;2022-11-15T09:35:11;17.60;99.90
5697;DHT22;2873;50.966;7.210;2022-11-15T09:37:37;18.20;99.90
5697;DHT22;2873;50.966;7.210;2022-11-15T09:40:03;18.40;99.90
5697;DHT22;2873;50.966;7.210;2022-11-15T09:50:49;19.70;99.90
5697;DHT22;2873;50.966;7.210;2022-11-15T09:55:52;20.40;99.90
5697;DHT22;2873;50.966;7.210;2022-11-15T09:58:39;20.30;99.90
5697;DHT22;2873;50.966;7.210;2022-11-15T10:01:18;20.60;99.90
5697;DHT22;2873;50.966;7.210;2022-11-15T10:03:45;20.80;99.90
5697;DHT22;2873;50.966;7.210;2022-11-15T10:06:22;20.60;99.90
5697;DHT22;2873;50.966;7.210;2022-11-15T10:09:11;20.50;99.90
5697;DHT22;2873;50.966;7.210;2022-11-15T10:11:39;19.90;99.90
5697;DHT22;2873;50.966;7.210;2022-11-15T10:14:24;19.40;99.90
5697;DHT22;2873;50.966;7.210;2022-11-15T10:17:07;19.40;99.90
5697;DHT22;2873;50.966;7.210;2022-11-15T10:22:45;19.00;99.90
5697;DHT22;2873;50.966;7.210;2022-11-15T10:25:28;18.80;99.90
5697;DHT22;2873;50.966;7.210;2022-11-15T10:28:16;18.80;99.90
5697;DHT22;2873;50.966;7.210;2022-11-15T10:30:48;19.30;99.90
5697;DHT22;2873;50.966;7.210;2022-11-15T10:41:21;19.80;99.90
5697;DHT22;2873;50.966;7.210;2022-11-15T10:46:39;20.10;99.90
5697;DHT22;2873;50.966;7.210;2022-11-15T10:49:22;20.40;99.90
5697;DHT22;2873;50.966;7.210;2022-11-15T10:54:35;20.20;99.90
5697;DHT22;2873;50.966;7.210;2022-11-15T10:57:08;20.30;99.90
5697;DHT22;2873;50.966;7.210;2022-11-15T10:59:37;20.30;99.90
5697;DHT22;2873;50.966;7.210;2022-11-15T11:02:27;20.20;99.90
5697;DHT22;2873;50.966;7.210;2022-11-15T11:04:53;19.40;99.90
5697;DHT22;2873;50.966;7.210;2022-11-15T11:07:28;20.00;99.90
5697;DHT22;2873;50.966;7.210;2022-11-15T11:12:35;20.10;99.90
5697;DHT22;2873;50.966;7.210;2022-11-15T11:15:10;20.10;99.90
5697;DHT22;2873;50.966;7.210;2022-11-15T11:18:03;20.40;99.90
5697;DHT22;2873;50.966;7.210;2022-11-15T11:20:45;20.10;99.90
5697;DHT22;2873;50.966;7.210;2022-11-15T11:26:35;20.90;99.90
5697;DHT22;2873;50.966;7.210;2022-11-15T11:29:31;20.00;99.90
5697;DHT22;2873;50.966;7.210;2022-11-15T11:35:08;20.90;99.90
5697;DHT22;2873;50.966;7.210;2022-11-15T11:37:54;20.90;99.90
5697;DHT22;2873;50.966;7.210;2022-11-15T11:40:30;21.00;99.90
5697;DHT22;2873;50.966;7.210;2022-11-15T11:48:45;21.10;99.90
5697;DHT22;2873;50.966;7.210;2022-11-15T11:51:28;20.60;99.90
5697;DHT22;2873;50.966;7.210;2022-11-15T11:56:39;20.90;99.90
5697;DHT22;2873;50.966;7.210;2022-11-15T11:59:31;20.90;99.90
5697;DHT22;2873;50.966;7.210;2022-11-15T12:02:09;20.60;99.90
5697;DHT22;2873;50.966;7.210;2022-11-15T12:04:39;20.70;99.90
5697;DHT22;2873;50.966;7.210;2022-11-15T12:07:13;21.20;99.90
5697;DHT22;2873;50.966;7.210;2022-11-15T12:12:15;20.50;99.90
5697;DHT22;2873;50.966;7.210;2022-11-15T12:14:53;21.20;99.90
5697;DHT22;2873;50.966;7.210;2022-11-15T12:17:25;21.40;99.90
5697;DHT22;2873;50.966;7.210;2022-11-15T12:19:55;21.40;99.90
5697;DHT22;2873;50.966;7.210;2022-11-15T12:23:39;21.10;99.90
5697;DHT22;2873;50.966;7.210;2022-11-15T12:25:51;21.10;99.90
5697;DHT22;2873;50.966;7.210;2022-11-15T12:28:34;20.70;99.90
5697;DHT22;2873;50.966;7.210;2022-11-15T12:31:05;19.60;99.90
5697;DHT22;2873;50.966;7.210;2022-11-15T12:33:47;19.10;99.90
5697;DHT22;2873;50.966;7.210;2022-11-15T12:39:02;18.30;99.90
5697;DHT22;2873;50.966;7.210;2022-11-15T12:41:32;17.70;99.90
5697;DHT22;2873;50.966;7.210;2022-11-15T12:43:58;17.00;99.90
5697;DHT22;2873;50.966;7.210;2022-11-15T12:48:58;17.10;99.90
5697;DHT22;2873;50.966;7.210;2022-11-15T13:02:39;16.40;99.90
5697;DHT22;2873;50.966;7.210;2022-11-15T13:10:34;16.50;99.90
5697;DHT22;2873;50.966;7.210;2022-11-15T13:13:00;16.50;99.90
5697;DHT22;2873;50.966;7.210;2022-11-15T13:20:56;15.80;99.90
5697;DHT22;2873;50.966;7.210;2022-11-15T13:23:22;15.90;99.90
5697;DHT22;2873;50.966;7.210;2022-11-15T13:26:27;15.90;99.90
5697;DHT22;2873;50.966;7.210;2022-11-15T13:28:52;15.90;99.90
5697;DHT22;2873;50.966;7.210;2022-11-15T13:31:36;15.90;99.90
5697;DHT22;2873;50.966;7.210;2022-11-15T13:34:16;15.70;99.90
5697;DHT22;2873;50.966;7.210;2022-11-15T13:36:43;15.70;99.90
5697;DHT22;2873;50.966;7.210;2022-11-15T13:39:35;15.50;99.90
5697;DHT22;2873;50.966;7.210;2022-11-15T13:42:03;15.50;99.90
5697;DHT22;2873;50.966;7.210;2022-11-15T13:44:31;15.40;99.90
5697;DHT22;2873;50.966;7.210;2022-11-15T13:47:16;15.50;99.90
5697;DHT22;2873;50.966;7.210;2022-11-15T13:49:43;15.50;99.90
5697;DHT22;2873;50.966;7.210;2022-11-15T13:52:14;15.40;99.90
5697;DHT22;2873;50.966;7.210;2022-11-15T13:54:50;15.50;99.90
5697;DHT22;2873;50.966;7.210;2022-11-15T13:57:23;15.40;99.90
5697;DHT22;2873;50.966;7.210;2022-11-15T13:59:58;15.30;99.90
5697;DHT22;2873;50.966;7.210;2022-11-15T14:02:31;15.30;99.90
5697;DHT22;2873;50.966;7.210;2022-11-15T14:05:02;15.10;99.90
5697;DHT22;2873;50.966;7.210;2022-11-15T14:07:28;15.30;99.90
5697;DHT22;2873;50.966;7.210;2022-11-15T14:09:55;15.20;99.90
5697;DHT22;2873;50.966;7.210;2022-11-15T14:14:56;15.30;99.90
5697;DHT22;2873;50.966;7.210;2022-11-15T14:19:54;15.10;99.90
5697;DHT22;2873;50.966;7.210;2022-11-15T14:22:27;15.20;99.90
5697;DHT22;2873;50.966;7.210;2022-11-15T14:27:38;14.90;99.90
5697;DHT22;2873;50.966;7.210;2022-11-15T14:30:04;15.00;99.90
5697;DHT22;2873;50.966;7.210;2022-11-15T14:32:44;15.10;99.90
5697;DHT22;2873;50.966;7.210;2022-11-15T14:35:15;15.10;99.90
5697;DHT22;2873;50.966;7.210;2022-11-15T14:37:41;15.10;99.90
5697;DHT22;2873;50.966;7.210;2022-11-15T14:40:12;15.20;99.90
5697;DHT22;2873;50.966;7.210;2022-11-15T14:42:37;15.20;99.90
5697;DHT22;2873;50.966;7.210;2022-11-15T14:45:07;15.30;99.90
5697;DHT22;2873;50.966;7.210;2022-11-15T14:47:34;15.30;99.90
5697;DHT22;2873;50.966;7.210;2022-11-15T14:49:59;15.20;99.90
5697;DHT22;2873;50.966;7.210;2022-11-15T14:52:29;15.20;99.90
5697;DHT22;2873;50.966;7.210;2022-11-15T14:54:59;15.30;99.90
5697;DHT22;2873;50.966;7.210;2022-11-15T14:57:25;15.20;99.90
5697;DHT22;2873;50.966;7.210;2022-11-15T14:59:50;15.30;99.90
5697;DHT22;2873;50.966;7.210;2022-11-15T15:02:19;15.40;99.90
5697;DHT22;2873;50.966;7.210;2022-11-15T15:04:45;15.30;99.90
5697;DHT22;2873;50.966;7.210;2022-11-15T15:07:10;15.30;99.90
5697;DHT22;2873;50.966;7.210;2022-11-15T15:09:36;15.20;99.90
5697;DHT22;2873;50.966;7.210;2022-11-15T15:12:01;15.10;99.90
5697;DHT22;2873;50.966;7.210;2022-11-15T15:14:27;14.90;99.90
5697;DHT22;2873;50.966;7.210;2022-11-15T15:16:53;14.90;99.90
5697;DHT22;2873;50.966;7.210;2022-11-15T15:19:18;15.00;99.90
5697;DHT22;2873;50.966;7.210;2022-11-15T15:21:44;14.70;99.90
5697;DHT22;2873;50.966;7.210;2022-11-15T15:24:14;14.60;99.90
5697;DHT22;2873;50.966;7.210;2022-11-15T15:26:42;14.60;99.90
5697;DHT22;2873;50.966;7.210;2022-11-15T15:29:09;14.70;99.90
5697;DHT22;2873;50.966;7.210;2022-11-15T15:31:34;14.80;99.90
5697;DHT22;2873;50.966;7.210;2022-11-15T15:34:00;14.90;99.90
5697;DHT22;2873;50.966;7.210;2022-11-15T15:36:26;14.70;99.90
5697;DHT22;2873;50.966;7.210;2022-11-15T15:38:51;14.60;99.90
5697;DHT22;2873;50.966;7.210;2022-11-15T15:41:18;14.50;99.90
5697;DHT22;2873;50.966;7.210;2022-11-15T15:43:44;14.50;99.90
5697;DHT22;2873;50.966;7.210;2022-11-15T15:46:12;14.40;99.90
5697;DHT22;2873;50.966;7.210;2022-11-15T15:48:38;14.20;99.90
5697;DHT22;2873;50.966;7.210;2022-11-15T15:51:05;14.30;99.90
5697;DHT22;2873;50.966;7.210;2022-11-15T15:53:30;14.30;99.90
5697;DHT22;2873;50.966;7.210;2022-11-15T15:55:56;14.50;99.90
5697;DHT22;2873;50.966;7.210;2022-11-15T15:58:22;14.60;99.90
5697;DHT22;2873;50.966;7.210;2022-11-15T16:00:48;14.60;99.90
5697;DHT22;2873;50.966;7.210;2022-11-15T16:03:13;14.50;99.90
5697;DHT22;2873;50.966;7.210;2022-11-15T16:05:38;14.50;99.90
5697;DHT22;2873;50.966;7.210;2022-11-15T16:08:04;14.40;99.90
5697;DHT22;2873;50.966;7.210;2022-11-15T16:10:32;14.40;99.90
5697;DHT22;2873;50.966;7.210;2022-11-15T16:12:59;14.50;99.90
5697;DHT22;2873;50.966;7.210;2022-11-15T16:15:27;14.50;99.90
5697;DHT22;2873;50.966;7.210;2022-11-15T16:17:56;14.30;99.90
5697;DHT22;2873;50.966;7.210;2022-11-15T16:20:54;14.20;99.90
5697;DHT22;2873;50.966;7.210;2022-11-15T16:23:22;14.20;99.90
5697;DHT22;2873;50.966;7.210;2022-11-15T16:25:54;14.20;99.90
5697;DHT22;2873;50.966;7.210;2022-11-15T16:31:05;14.50;99.90
5697;DHT22;2873;50.966;7.210;2022-11-15T16:33:33;14.40;99.90
5697;DHT22;2873;50.966;7.210;2022-11-15T16:35:58;14.50;99.90
5697;DHT22;2873;50.966;7.210;2022-11-15T16:38:24;14.50;99.90
5697;DHT22;2873;50.966;7.210;2022-11-15T16:40:49;14.60;99.90
5697;DHT22;2873;50.966;7.210;2022-11-15T16:43:15;14.40;99.90
5697;DHT22;2873;50.966;7.210;2022-11-15T16:45:41;14.50;99.90
5697;DHT22;2873;50.966;7.210;2022-11-15T16:48:22;14.40;99.90
5697;DHT22;2873;50.966;7.210;2022-11-15T16:50:48;14.60;99.90
5697;DHT22;2873;50.966;7.210;2022-11-15T16:53:13;14.60;99.90
5697;DHT22;2873;50.966;7.210;2022-11-15T16:55:39;14.60;99.90
5697;DHT22;2873;50.966;7.210;2022-11-15T16:58:04;14.60;99.90
5697;DHT22;2873;50.966;7.210;2022-11-15T17:00:30;14.60;99.90
5697;DHT22;2873;50.966;7.210;2022-11-15T17:02:56;14.70;99.90
5697;DHT22;2873;50.966;7.210;2022-11-15T17:05:23;14.70;99.90
5697;DHT22;2873;50.966;7.210;2022-11-15T17:07:50;14.60;99.90
5697;DHT22;2873;50.966;7.210;2022-11-15T17:10:23;14.60;99.90
5697;DHT22;2873;50.966;7.210;2022-11-15T17:12:49;14.60;99.90
5697;DHT22;2873;50.966;7.210;2022-11-15T17:15:15;14.50;99.90
5697;DHT22;2873;50.966;7.210;2022-11-15T17:17:41;14.30;99.90
5697;DHT22;2873;50.966;7.210;2022-11-15T17:20:16;14.20;99.90
5697;DHT22;2873;50.966;7.210;2022-11-15T17:22:42;14.30;99.90
5697;DHT22;2873;50.966;7.210;2022-11-15T17:25:08;14.20;99.90
5697;DHT22;2873;50.966;7.210;2022-11-15T17:27:34;14.30;99.90
5697;DHT22;2873;50.966;7.210;2022-11-15T17:29:59;14.40;99.90
5697;DHT22;2873;50.966;7.210;2022-11-15T17:32:25;14.40;99.90
5697;DHT22;2873;50.966;7.210;2022-11-15T17:34:50;14.40;99.90
5697;DHT22;2873;50.966;7.210;2022-11-15T17:37:16;14.50;99.90
5697;DHT22;2873;50.966;7.210;2022-11-15T17:39:41;14.50;99.90
5697;DHT22;2873;50.966;7.210;2022-11-15T17:42:07;14.50;99.90
5697;DHT22;2873;50.966;7.210;2022-11-15T17:44:32;14.50;99.90
5697;DHT22;2873;50.966;7.210;2022-11-15T17:46:58;14.50;99.90
5697;DHT22;2873;50.966;7.210;2022-11-15T17:49:23;14.50;99.90
5697;DHT22;2873;50.966;7.210;2022-11-15T17:51:49;14.60;99.90
5697;DHT22;2873;50.966;7.210;2022-11-15T17:54:14;14.60;99.90
5697;DHT22;2873;50.966;7.210;2022-11-15T17:56:40;13.90;99.90
5697;DHT22;2873;50.966;7.210;2022-11-15T17:59:06;14.30;99.90
5697;DHT22;2873;50.966;7.210;2022-11-15T18:01:34;14.30;99.90
5697;DHT22;2873;50.966;7.210;2022-11-15T18:04:01;14.20;99.90
5697;DHT22;2873;50.966;7.210;2022-11-15T18:06:29;14.20;99.90